Time;durP1;ratioP1;P1;durP2;ratioP2;P2;SDS_P1;SDS_P2;PMS_P1;PMS_P2;Temp;Humidity;BMP_temperature;BMP_pressure;BME280_temperature;BME280_humidity;BME280_pressure;Samples;Min_cycle;Max_cycle;Signal;HPM_P1;HPM_P2
2022/03/02 00:00:32;;;;;;;23.70;22.50;;;17.00;48.00;;;;;;5045326;28;20537;-43
2022/03/02 00:02:59;;;;;;;23.40;22.30;;;17.00;48.10;;;;;;5044696;28;20449;-43
2022/03/02 00:05:27;;;;;;;23.30;22.10;;;16.90;48.10;;;;;;5044913;28;20556;-41
2022/03/02 00:07:54;;;;;;;22.67;21.57;;;17.00;48.20;;;;;;5045938;28;20453;-43
2022/03/02 00:10:21;;;;;;;22.70;21.70;;;16.90;48.30;;;;;;5045958;28;20564;-42
2022/03/02 00:12:49;;;;;;;23.13;22.13;;;16.80;48.20;;;;;;5045681;28;20525;-46
2022/03/02 00:15:16;;;;;;;23.13;22.00;;;16.90;48.40;;;;;;5045092;28;20449;-45
2022/03/02 00:17:43;;;;;;;22.43;21.40;;;16.90;48.40;;;;;;5045397;28;20444;-43
2022/03/02 00:20:10;;;;;;;21.80;20.80;;;16.80;48.40;;;;;;5045029;28;20451;-46
2022/03/02 00:22:37;;;;;;;22.80;21.80;;;16.80;48.50;;;;;;5045177;28;20449;-46
2022/03/02 00:25:04;;;;;;;22.97;21.87;;;16.80;48.50;;;;;;5046093;28;20521;-46
2022/03/02 00:27:31;;;;;;;22.77;21.63;;;16.70;48.60;;;;;;5049329;28;20449;-43
2022/03/02 00:30:00;;;;;;;22.50;21.50;;;16.70;48.60;;;;;;5048693;28;20473;-44
2022/03/02 00:32:26;;;;;;;22.63;21.73;;;16.70;48.70;;;;;;5049239;28;20455;-44
2022/03/02 00:34:53;;;;;;;22.30;21.20;;;16.70;48.80;;;;;;5050003;28;20505;-43
2022/03/02 00:37:20;;;;;;;22.80;21.63;;;16.70;48.80;;;;;;5048956;28;20448;-47
2022/03/02 00:39:47;;;;;;;22.50;21.50;;;16.60;48.80;;;;;;5047313;28;20441;-48
2022/03/02 00:42:14;;;;;;;21.90;21.00;;;16.60;48.90;;;;;;5048243;28;20524;-49
2022/03/02 00:44:41;;;;;;;22.03;21.03;;;16.60;48.90;;;;;;5048041;28;20550;-44
2022/03/02 00:47:10;;;;;;;22.60;21.57;;;16.50;48.90;;;;;;5047998;28;20429;-45
2022/03/02 00:49:37;;;;;;;23.30;22.20;;;16.50;48.90;;;;;;5046915;28;20516;-47
2022/03/02 00:52:06;;;;;;;22.63;21.63;;;16.50;49.00;;;;;;5048801;28;20468;-44
2022/03/02 00:54:33;;;;;;;22.03;21.03;;;16.50;49.00;;;;;;5048598;28;20429;-43
2022/03/02 00:57:00;;;;;;;22.60;21.53;;;16.40;49.00;;;;;;5050005;28;20449;-45
2022/03/02 00:59:26;;;;;;;22.60;21.50;;;16.40;49.10;;;;;;5049863;28;20448;-42
2022/03/02 01:01:53;;;;;;;22.80;21.80;;;16.40;49.10;;;;;;5074574;22;20594;-49
2022/03/02 01:04:22;;;;;;;23.20;22.00;;;16.40;49.20;;;;;;5054903;28;20818;-44
2022/03/02 01:06:48;;;;;;;22.43;21.40;;;16.40;49.30;;;;;;5054988;28;20941;-46
2022/03/02 01:09:15;;;;;;;22.30;21.30;;;16.40;49.40;;;;;;5066942;28;20486;-45
2022/03/02 01:11:42;;;;;;;21.93;20.97;;;16.30;49.30;;;;;;5063314;28;20464;-44
2022/03/02 01:14:09;;;;;;;22.97;21.97;;;16.30;49.40;;;;;;5054811;28;20444;-44
2022/03/02 01:16:36;;;;;;;22.83;21.43;;;16.30;49.40;;;;;;5055042;28;20510;-43
2022/03/02 01:19:04;;;;;;;22.40;21.33;;;16.30;49.50;;;;;;5043938;28;20445;-45
2022/03/02 01:21:32;;;;;;;22.77;21.67;;;16.20;49.40;;;;;;5034639;28;20978;-44
2022/03/02 01:23:59;;;;;;;22.23;21.23;;;16.20;49.40;;;;;;5034653;28;20507;-43
2022/03/02 01:26:28;;;;;;;21.50;20.60;;;16.20;49.50;;;;;;5034609;28;20447;-44
2022/03/02 01:28:56;;;;;;;22.73;21.63;;;16.20;49.50;;;;;;5043320;28;20484;-44
2022/03/02 01:31:23;;;;;;;22.50;21.40;;;16.20;49.60;;;;;;5054527;28;20474;-44
2022/03/02 01:33:51;;;;;;;22.27;21.27;;;16.20;49.60;;;;;;5054394;28;20452;-44
2022/03/02 01:36:18;;;;;;;22.27;21.27;;;16.10;49.60;;;;;;5054211;28;20809;-44
2022/03/02 01:38:46;;;;;;;22.90;21.80;;;16.10;49.60;;;;;;5046248;28;20445;-46
2022/03/02 01:41:15;;;;;;;22.50;21.40;;;16.10;49.70;;;;;;5034390;28;20469;-43
2022/03/02 01:43:42;;;;;;;22.30;21.30;;;16.10;49.80;;;;;;5034363;28;20449;-44
2022/03/02 01:46:09;;;;;;;21.67;20.73;;;16.00;49.70;;;;;;5034267;28;20461;-46
2022/03/02 01:48:36;;;;;;;22.30;21.27;;;16.00;49.70;;;;;;5053719;28;20456;-44
2022/03/02 01:51:03;;;;;;;22.60;21.43;;;16.00;49.80;;;;;;5054023;28;20464;-44
2022/03/02 01:53:30;;;;;;;23.03;21.87;;;16.00;49.80;;;;;;5054029;28;20962;-44
2022/03/02 01:55:59;;;;;;;23.10;22.00;;;16.00;49.90;;;;;;5053879;28;20451;-44
2022/03/02 01:58:27;;;;;;;22.57;21.57;;;16.00;49.90;;;;;;5035099;28;20452;-44
2022/03/02 02:00:54;;;;;;;22.53;21.53;;;15.90;49.90;;;;;;5033687;28;20477;-44
2022/03/02 02:03:21;;;;;;;23.23;22.13;;;15.90;49.90;;;;;;5034025;28;20453;-44
2022/03/02 02:05:49;;;;;;;23.10;22.00;;;15.90;50.00;;;;;;5033987;28;20441;-44
2022/03/02 02:08:15;;;;;;;23.10;22.00;;;15.90;50.00;;;;;;5050222;28;20797;-43
2022/03/02 02:10:42;;;;;;;23.00;21.90;;;15.90;50.10;;;;;;5053506;28;20488;-44
2022/03/02 02:13:11;;;;;;;22.57;21.50;;;15.80;50.10;;;;;;5053736;28;20464;-43
2022/03/02 02:15:37;;;;;;;22.67;21.60;;;15.80;50.10;;;;;;5053826;28;20452;-44
2022/03/02 02:18:05;;;;;;;22.53;21.53;;;15.80;50.20;;;;;;5051881;28;20833;-43
2022/03/02 02:20:36;;;;;;;22.60;21.60;;;15.80;50.20;;;;;;5052329;28;20437;-45
2022/03/02 02:23:03;;;;;;;23.50;22.40;;;15.80;50.30;;;;;;5053500;28;20459;-44
2022/03/02 02:25:29;;;;;;;23.00;21.90;;;15.80;50.40;;;;;;5053396;28;20451;-44
2022/03/02 02:27:56;;;;;;;22.60;21.50;;;15.80;50.40;;;;;;5039594;28;20445;-44
2022/03/02 02:30:24;;;;;;;23.00;21.90;;;15.70;50.30;;;;;;5033549;28;20488;-43
2022/03/02 02:32:51;;;;;;;23.30;22.10;;;15.70;50.30;;;;;;5033740;28;20453;-43
2022/03/02 02:35:17;;;;;;;22.40;21.40;;;15.70;50.30;;;;;;5033435;28;20449;-44
2022/03/02 02:37:46;;;;;;;22.90;21.80;;;15.70;50.40;;;;;;5044511;28;20451;-44
2022/03/02 02:40:17;;;;;;;23.07;21.97;;;15.70;50.40;;;;;;5053109;28;20532;-44
2022/03/02 02:42:45;;;;;;;23.43;22.27;;;15.60;50.40;;;;;;5053121;28;20468;-44
2022/03/02 02:45:15;;;;;;;22.73;21.73;;;15.60;50.50;;;;;;5053097;28;20509;-44
2022/03/02 02:47:42;;;;;;;23.27;22.17;;;15.60;50.50;;;;;;5040929;28;20450;-44
2022/03/02 02:50:20;;;;;;;23.10;22.00;;;15.60;50.60;;;;;;5032910;28;20485;-44
2022/03/02 02:52:49;;;;;;;22.70;21.60;;;15.60;50.60;;;;;;5033158;28;20441;-44
2022/03/02 02:55:17;;;;;;;22.87;21.87;;;15.60;50.60;;;;;;5032958;28;20445;-43
2022/03/02 02:57:44;;;;;;;23.03;21.93;;;15.60;50.60;;;;;;5043557;28;20807;-46
2022/03/02 03:00:15;;;;;;;24.00;22.90;;;15.60;50.60;;;;;;5052717;28;20800;-44
2022/03/02 03:02:42;;;;;;;23.00;21.80;;;15.50;50.50;;;;;;5052822;28;20472;-45
2022/03/02 03:05:14;;;;;;;23.33;22.23;;;15.50;50.60;;;;;;5052763;28;20792;-45
2022/03/02 03:07:41;;;;;;;23.00;21.90;;;15.50;50.50;;;;;;5042052;28;20456;-45
2022/03/02 03:10:11;;;;;;;23.63;22.40;;;15.50;50.50;;;;;;5032557;28;20481;-43
2022/03/02 03:12:38;;;;;;;22.83;21.77;;;15.50;50.60;;;;;;5032699;28;20473;-44
2022/03/02 03:15:09;;;;;;;22.73;21.73;;;15.50;50.60;;;;;;5032585;28;20445;-44
2022/03/02 03:17:36;;;;;;;22.83;21.73;;;15.50;50.60;;;;;;5041667;28;20527;-43
2022/03/02 03:20:04;;;;;;;23.93;22.83;;;15.50;50.60;;;;;;5052166;28;20476;-44
2022/03/02 03:22:30;;;;;;;23.00;21.87;;;15.50;50.70;;;;;;5052265;28;20471;-44
2022/03/02 03:24:58;;;;;;;23.00;21.80;;;15.50;50.60;;;;;;5050944;28;20444;-44
2022/03/02 03:27:26;;;;;;;21.83;20.93;;;15.50;50.70;;;;;;5032326;28;20469;-43
2022/03/02 03:29:53;;;;;;;22.67;21.50;;;15.40;50.60;;;;;;5032106;28;20969;-44
2022/03/02 03:32:19;;;;;;;23.03;21.90;;;15.40;50.70;;;;;;5032158;28;20461;-46
2022/03/02 03:34:47;;;;;;;22.90;21.80;;;15.40;50.70;;;;;;5032236;28;20441;-44
2022/03/02 03:37:13;;;;;;;23.03;21.90;;;15.40;50.80;;;;;;5051439;28;20480;-44
2022/03/02 03:39:42;;;;;;;22.50;21.40;;;15.40;50.80;;;;;;5051844;28;20925;-44
2022/03/02 03:42:09;;;;;;;23.23;22.13;;;15.40;50.80;;;;;;5051955;28;20468;-43
2022/03/02 03:44:38;;;;;;;24.57;23.37;;;15.40;50.80;;;;;;5052006;28;20448;-45
2022/03/02 03:47:06;;;;;;;22.87;21.87;;;15.40;50.90;;;;;;5033225;28;20449;-44
2022/03/02 03:49:33;;;;;;;23.00;21.57;;;15.40;50.90;;;;;;5031727;28;20520;-43
2022/03/02 03:52:00;;;;;;;22.10;21.13;;;15.40;50.90;;;;;;5031934;28;20493;-43
2022/03/02 03:54:27;;;;;;;23.10;22.00;;;15.40;50.90;;;;;;5042221;28;20833;-45
2022/03/02 03:56:54;;;;;;;23.50;22.33;;;15.40;50.90;;;;;;5051845;28;20972;-43
2022/03/02 03:59:20;;;;;;;23.23;22.10;;;15.40;51.00;;;;;;5051521;28;20444;-45
2022/03/02 04:01:48;;;;;;;23.37;22.17;;;15.40;51.00;;;;;;5051641;28;20480;-46
2022/03/02 04:04:15;;;;;;;22.23;21.23;;;15.40;51.00;;;;;;5042951;28;20798;-44
2022/03/02 04:06:42;;;;;;;23.23;22.13;;;15.40;51.10;;;;;;5031733;28;20445;-43
2022/03/02 04:09:09;;;;;;;22.50;21.47;;;15.40;51.00;;;;;;5031437;28;20450;-45
2022/03/02 04:11:36;;;;;;;22.60;21.50;;;15.40;51.00;;;;;;5031644;28;20465;-44
2022/03/02 04:14:03;;;;;;;22.50;21.33;;;15.30;51.00;;;;;;5038179;28;20459;-44
2022/03/02 04:16:30;;;;;;;22.20;21.20;;;15.30;51.00;;;;;;5051668;28;20448;-44
2022/03/02 04:18:58;;;;;;;22.57;21.50;;;15.30;51.00;;;;;;5051395;28;20451;-46
2022/03/02 04:21:25;;;;;;;22.37;21.37;;;15.40;51.10;;;;;;5051284;28;20980;-43
2022/03/02 04:23:52;;;;;;;22.40;21.40;;;15.30;51.00;;;;;;5046533;28;20938;-44
2022/03/02 04:26:18;;;;;;;22.67;21.50;;;15.40;51.10;;;;;;5031533;28;20442;-44
2022/03/02 04:28:45;;;;;;;23.10;22.00;;;15.30;51.00;;;;;;5031303;28;20445;-43
2022/03/02 04:31:12;;;;;;;23.20;22.10;;;15.30;51.00;;;;;;5038214;28;20488;-44
2022/03/02 04:33:39;;;;;;;22.70;21.60;;;15.30;51.00;;;;;;5051380;28;20447;-44
2022/03/02 04:36:07;;;;;;;23.03;21.93;;;15.30;51.00;;;;;;5051576;28;20452;-44
2022/03/02 04:38:34;;;;;;;23.30;22.17;;;15.30;51.00;;;;;;5051163;28;20451;-44
2022/03/02 04:41:01;;;;;;;22.60;21.50;;;15.30;51.00;;;;;;5045960;28;20464;-44
2022/03/02 04:43:28;;;;;;;21.90;20.90;;;15.30;51.10;;;;;;5031445;28;20446;-43
2022/03/02 04:45:55;;;;;;;22.30;21.30;;;15.30;51.10;;;;;;5031409;28;20453;-43
2022/03/02 04:48:22;;;;;;;22.20;21.20;;;15.30;51.20;;;;;;5031108;28;20453;-44
2022/03/02 04:50:49;;;;;;;22.50;21.40;;;15.20;51.10;;;;;;5033999;28;20486;-45
2022/03/02 04:53:17;;;;;;;23.40;22.20;;;15.20;51.10;;;;;;5050995;28;20444;-43
2022/03/02 04:55:44;;;;;;;23.10;21.90;;;15.20;51.10;;;;;;5050908;28;20453;-43
2022/03/02 04:58:12;;;;;;;23.13;22.03;;;15.20;51.10;;;;;;5051182;28;20449;-45
2022/03/02 05:00:39;;;;;;;22.90;21.80;;;15.20;51.10;;;;;;5049141;28;20440;-44
2022/03/02 05:03:07;;;;;;;23.20;22.10;;;15.20;51.10;;;;;;5030364;28;20528;-48
2022/03/02 05:05:35;;;;;;;23.50;22.30;;;15.20;51.10;;;;;;5030532;28;20449;-44
2022/03/02 05:08:02;;;;;;;22.50;21.40;;;15.20;51.10;;;;;;5030069;28;20445;-44
2022/03/02 05:10:31;;;;;;;23.10;22.00;;;15.20;51.10;;;;;;5029919;28;20481;-44
2022/03/02 05:12:58;;;;;;;23.00;21.80;;;15.20;51.10;;;;;;5013781;28;20804;-43
2022/03/02 05:15:25;;;;;;;23.77;22.47;;;15.20;51.10;;;;;;5013853;28;20453;-43
2022/03/02 05:17:52;;;;;;;23.50;22.20;;;15.20;51.20;;;;;;5013928;28;20931;-44
2022/03/02 05:20:21;;;;;;;22.70;21.60;;;15.20;51.20;;;;;;5013706;28;20450;-43
2022/03/02 05:22:49;;;;;;;26.30;24.00;;;15.20;51.20;;;;;;5050534;28;20448;-44
2022/03/02 05:25:17;;;;;;;25.60;23.67;;;15.20;55.20;;;;;;5053497;28;20956;-44
2022/03/02 05:27:46;;;;;;;26.00;24.20;;;15.20;70.20;;;;;;5053323;28;20880;-44
2022/03/02 05:30:13;;;;;;;32.10;25.80;;;15.20;99.90;;;;;;5053132;28;20483;-44
2022/03/02 05:32:41;;;;;;;25.93;23.43;;;15.30;99.90;;;;;;5035515;28;20465;-44
2022/03/02 05:35:09;;;;;;;28.43;24.17;;;15.40;99.90;;;;;;5033567;28;20445;-44
2022/03/02 05:37:36;;;;;;;28.77;25.80;;;15.40;99.90;;;;;;5033299;28;20453;-44
2022/03/02 05:40:03;;;;;;;25.00;23.10;;;15.30;99.90;;;;;;5032944;28;20471;-43
2022/03/02 05:42:30;;;;;;;25.27;23.10;;;15.30;99.90;;;;;;5048488;28;20521;-44
2022/03/02 05:44:58;;;;;;;24.73;23.07;;;15.30;99.90;;;;;;5052971;28;20502;-45
2022/03/02 05:47:25;;;;;;;25.17;22.93;;;15.20;99.90;;;;;;5053018;28;20444;-44
2022/03/02 05:49:52;;;;;;;26.60;24.30;;;15.40;99.90;;;;;;5052660;28;20506;-44
2022/03/02 05:52:19;;;;;;;26.40;23.63;;;15.80;99.90;;;;;;5052782;28;20468;-44
2022/03/02 05:54:46;;;;;;;25.70;23.60;;;16.30;99.90;;;;;;5053119;28;20451;-44
2022/03/02 05:57:13;;;;;;;25.60;23.80;;;16.70;97.40;;;;;;5052880;28;20444;-44
2022/03/02 05:59:39;;;;;;;25.13;23.43;;;17.10;95.10;;;;;;5052724;28;20454;-44
2022/03/02 06:02:07;;;;;;;26.47;24.67;;;17.50;92.60;;;;;;5016025;28;1067259;-44
2022/03/02 06:04:34;;;;;;;34.10;31.80;;;17.90;89.20;;;;;;5053765;28;20202;-45
2022/03/02 06:07:01;;;;;;;36.73;34.37;;;18.20;83.30;;;;;;5053808;28;20458;-45
2022/03/02 06:09:28;;;;;;;38.93;36.80;;;18.30;78.60;;;;;;5053670;28;20875;-44
2022/03/02 06:11:55;;;;;;;39.53;36.70;;;18.50;75.10;;;;;;5053499;28;20484;-44
2022/03/02 06:14:22;;;;;;;32.83;31.03;;;18.70;71.60;;;;;;5053546;28;20458;-44
2022/03/02 06:16:50;;;;;;;32.80;30.70;;;18.80;68.80;;;;;;5053867;28;20452;-47
2022/03/02 06:19:19;;;;;;;30.57;28.60;;;18.90;66.70;;;;;;5053255;28;20444;-45
2022/03/02 06:21:48;;;;;;;34.13;31.70;;;19.00;64.60;;;;;;5053325;28;20467;-47
2022/03/02 06:24:15;;;;;;;35.20;32.70;;;19.10;62.90;;;;;;5052403;28;20795;-44
2022/03/02 06:26:42;;;;;;;31.97;30.37;;;19.10;61.30;;;;;;5053350;28;20444;-44
2022/03/02 06:29:09;;;;;;;39.53;37.30;;;19.10;60.00;;;;;;5053144;28;20452;-49
2022/03/02 06:31:36;;;;;;;36.77;34.83;;;19.20;59.20;;;;;;5053125;28;20496;-45
2022/03/02 06:34:02;;;;;;;36.97;34.87;;;19.20;58.40;;;;;;5053174;28;20444;-45
2022/03/02 06:36:30;;;;;;;32.70;30.70;;;19.30;57.70;;;;;;5053077;28;20459;-44
2022/03/02 06:38:57;;;;;;;33.13;31.33;;;19.30;57.10;;;;;;5052892;28;20444;-45
2022/03/02 06:41:31;;;;;;;35.73;33.57;;;19.30;56.50;;;;;;5053385;28;20461;-45
2022/03/02 06:44:02;;;;;;;36.77;34.87;;;19.40;56.00;;;;;;5053138;28;20444;-50
2022/03/02 06:46:35;;;;;;;33.70;31.80;;;19.40;55.50;;;;;;5053114;28;20467;-46
2022/03/02 06:49:06;;;;;;;33.47;31.83;;;19.40;55.00;;;;;;5052833;28;20440;-45
2022/03/02 06:51:39;;;;;;;33.90;32.10;;;19.40;54.50;;;;;;5052761;28;20487;-45
2022/03/02 06:54:12;;;;;;;30.20;28.53;;;19.40;54.20;;;;;;5053057;28;20809;-47
2022/03/02 06:56:46;;;;;;;30.37;28.37;;;19.40;53.80;;;;;;5052918;28;20481;-44
2022/03/02 06:59:13;;;;;;;31.47;29.67;;;19.40;53.40;;;;;;5052641;28;20432;-45
2022/03/02 07:01:43;;;;;;;32.60;30.80;;;19.40;53.10;;;;;;5068658;22;20493;-45
2022/03/02 07:04:13;;;;;;;31.77;30.07;;;19.40;52.90;;;;;;5032684;28;20445;-44
2022/03/02 07:06:43;;;;;;;36.20;34.43;;;19.40;52.50;;;;;;5032823;28;20433;-41
2022/03/02 07:09:09;;;;;;;37.80;36.10;;;19.40;52.30;;;;;;5032624;28;20437;-42
2022/03/02 07:11:36;;;;;;;36.00;34.30;;;19.50;52.20;;;;;;5032415;28;20485;-43
2022/03/02 07:14:03;;;;;;;34.40;32.60;;;19.40;51.90;;;;;;5032735;28;20445;-42
2022/03/02 07:16:30;;;;;;;36.83;34.93;;;19.40;51.70;;;;;;5032875;28;20453;-42
2022/03/02 07:18:57;;;;;;;36.90;35.00;;;19.40;51.40;;;;;;5032278;28;20456;-42
2022/03/02 07:21:27;;;;;;;35.23;33.13;;;19.40;51.30;;;;;;5032224;28;20473;-42
2022/03/02 07:23:59;;;;;;;34.20;32.50;;;19.40;51.10;;;;;;5032500;28;20485;-44
2022/03/02 07:26:28;;;;;;;37.30;35.50;;;19.40;51.00;;;;;;5032301;28;20464;-42
2022/03/02 07:28:56;;;;;;;37.20;35.50;;;19.40;50.80;;;;;;5032248;28;20542;-42
2022/03/02 07:31:23;;;;;;;34.90;33.27;;;19.30;51.20;;;;;;5032253;28;20480;-42
2022/03/02 07:33:53;;;;;;;37.53;35.73;;;19.30;50.60;;;;;;5031990;28;20441;-42
2022/03/02 07:36:21;;;;;;;32.43;30.73;;;19.30;50.50;;;;;;5032297;28;20453;-44
2022/03/02 07:38:48;;;;;;;35.60;33.90;;;19.30;50.30;;;;;;5031981;28;20445;-42
2022/03/02 07:41:17;;;;;;;34.60;32.90;;;19.30;50.20;;;;;;5031914;28;20476;-42
2022/03/02 07:43:44;;;;;;;33.10;31.50;;;19.20;50.10;;;;;;5032037;28;20449;-43
2022/03/02 07:46:13;;;;;;;34.10;32.50;;;19.20;50.60;;;;;;5032273;28;20935;-44
2022/03/02 07:48:40;;;;;;;28.90;27.40;;;19.20;50.00;;;;;;5031764;28;20856;-44
2022/03/02 07:51:09;;;;;;;30.17;28.67;;;19.10;49.90;;;;;;5031870;28;21025;-42
2022/03/02 07:53:40;;;;;;;34.07;32.37;;;19.10;49.90;;;;;;5032009;28;20469;-42
2022/03/02 07:56:08;;;;;;;34.13;32.43;;;19.00;49.80;;;;;;5031958;28;20495;-42
2022/03/02 07:58:39;;;;;;;29.27;27.57;;;19.00;49.80;;;;;;5031687;28;20535;-42
2022/03/02 08:01:07;;;;;;;35.77;34.03;;;18.90;49.80;;;;;;5031548;28;20543;-42
2022/03/02 08:03:38;;;;;;;35.37;33.67;;;18.90;49.70;;;;;;5031860;28;20449;-45
2022/03/02 08:06:07;;;;;;;36.10;34.37;;;18.90;49.80;;;;;;5031735;28;20468;-42
2022/03/02 08:08:35;;;;;;;35.60;33.70;;;18.80;49.70;;;;;;5031700;28;20822;-43
2022/03/02 08:11:02;;;;;;;31.63;30.13;;;18.80;49.70;;;;;;5031443;28;20858;-43
2022/03/02 08:13:31;;;;;;;32.60;31.00;;;18.80;49.70;;;;;;5031718;28;20627;-45
2022/03/02 08:15:59;;;;;;;35.20;33.60;;;18.80;49.70;;;;;;5031623;28;20795;-43
2022/03/02 08:18:26;;;;;;;34.83;33.00;;;18.70;49.60;;;;;;5031477;28;20530;-43
2022/03/02 08:20:55;;;;;;;35.27;33.67;;;18.70;49.60;;;;;;5031506;28;20445;-42
2022/03/02 08:23:24;;;;;;;33.93;32.30;;;18.70;49.60;;;;;;5031579;28;20449;-45
2022/03/02 08:25:53;;;;;;;31.37;29.90;;;18.60;49.50;;;;;;5031598;28;20445;-45
2022/03/02 08:28:21;;;;;;;37.43;35.57;;;18.60;49.50;;;;;;5031385;28;20477;-42
2022/03/02 08:30:51;;;;;;;34.63;32.93;;;18.50;49.50;;;;;;5031161;28;20477;-43
2022/03/02 08:33:25;;;;;;;37.17;35.47;;;18.50;49.50;;;;;;5031462;28;20445;-43
2022/03/02 08:35:52;;;;;;;36.83;35.10;;;18.50;49.50;;;;;;5031531;28;20473;-45
2022/03/02 08:38:19;;;;;;;37.60;35.90;;;18.50;49.60;;;;;;5031310;28;20452;-41
2022/03/02 08:40:46;;;;;;;36.50;34.80;;;18.50;49.70;;;;;;5031330;28;20445;-42
2022/03/02 08:43:15;;;;;;;33.80;32.30;;;18.50;49.70;;;;;;5031503;28;20449;-42
2022/03/02 08:45:44;;;;;;;35.63;34.00;;;18.60;49.70;;;;;;5031469;28;20550;-42
2022/03/02 08:48:12;;;;;;;33.60;32.10;;;18.70;49.70;;;;;;5035327;28;20453;-42
2022/03/02 08:50:41;;;;;;;31.87;30.47;;;18.70;49.50;;;;;;5035081;28;20455;-42
2022/03/02 08:53:09;;;;;;;32.33;30.83;;;18.80;49.30;;;;;;5035338;28;20445;-42
2022/03/02 08:55:36;;;;;;;28.30;27.00;;;18.90;49.10;;;;;;5035304;28;20449;-42
2022/03/02 08:58:03;;;;;;;31.00;29.60;;;18.90;48.90;;;;;;5035187;28;20806;-45
2022/03/02 09:00:30;;;;;;;31.27;29.87;;;19.00;48.80;;;;;;5035019;28;20445;-43
2022/03/02 09:02:57;;;;;;;32.27;30.77;;;19.00;48.70;;;;;;5034978;28;20488;-44
2022/03/02 09:05:27;;;;;;;31.90;30.30;;;19.00;48.50;;;;;;5035046;28;21045;-43
2022/03/02 09:07:55;;;;;;;39.87;38.07;;;19.10;48.40;;;;;;5035072;28;20452;-44
2022/03/02 09:10:23;;;;;;;35.90;34.20;;;19.10;48.30;;;;;;5034912;28;21016;-42
2022/03/02 09:12:50;;;;;;;29.30;27.90;;;19.10;48.20;;;;;;5034735;28;21067;-44
2022/03/02 09:15:16;;;;;;;30.67;29.10;;;19.10;48.00;;;;;;5034906;28;20445;-44
2022/03/02 09:17:43;;;;;;;28.33;26.93;;;19.10;47.90;;;;;;5034763;28;20452;-43
2022/03/02 09:20:11;;;;;;;30.67;29.20;;;19.10;47.80;;;;;;5034765;28;21025;-44
2022/03/02 09:22:39;;;;;;;27.43;26.23;;;19.10;47.70;;;;;;5034597;28;20883;-45
2022/03/02 09:25:09;;;;;;;30.97;29.50;;;19.20;47.70;;;;;;5034859;28;20441;-45
2022/03/02 09:27:36;;;;;;;29.73;28.43;;;19.20;47.70;;;;;;5034700;28;20456;-45
2022/03/02 09:30:06;;;;;;;31.00;29.60;;;19.20;47.60;;;;;;5034333;28;20452;-42
2022/03/02 09:32:34;;;;;;;29.03;27.73;;;19.20;47.50;;;;;;5034502;28;20495;-42
2022/03/02 09:35:01;;;;;;;29.80;28.47;;;19.20;47.40;;;;;;5034614;28;20958;-43
2022/03/02 09:37:33;;;;;;;31.37;29.80;;;19.20;47.40;;;;;;5034554;28;20449;-44
2022/03/02 09:40:01;;;;;;;31.90;30.50;;;19.20;47.40;;;;;;5034302;28;20449;-42
2022/03/02 09:42:32;;;;;;;29.63;28.33;;;19.20;47.30;;;;;;5034436;28;20457;-42
2022/03/02 09:45:02;;;;;;;33.17;31.67;;;19.10;47.10;;;;;;5034253;28;20446;-43
2022/03/02 09:47:44;;;;;;;30.20;28.80;;;19.20;47.20;;;;;;5034439;28;20867;-46
2022/03/02 09:50:13;;;;;;;31.63;30.23;;;19.20;47.10;;;;;;5034257;28;20446;-44
2022/03/02 09:52:42;;;;;;;27.77;26.57;;;19.20;47.00;;;;;;5034070;28;20516;-42
2022/03/02 09:55:12;;;;;;;29.73;28.43;;;19.20;47.00;;;;;;5034271;28;20445;-42
2022/03/02 09:57:43;;;;;;;29.63;28.23;;;19.10;46.90;;;;;;5033968;28;20449;-44
2022/03/02 10:00:11;;;;;;;29.00;27.70;;;19.20;46.90;;;;;;5034143;28;20442;-44
2022/03/02 10:02:40;;;;;;;29.00;27.60;;;19.10;46.70;;;;;;5033938;28;20891;-44
2022/03/02 10:05:10;;;;;;;28.40;27.20;;;19.10;46.70;;;;;;5034050;28;20927;-46
2022/03/02 10:07:40;;;;;;;35.93;34.40;;;19.10;46.70;;;;;;5033912;28;20449;-42
2022/03/02 10:10:09;;;;;;;31.20;29.80;;;19.10;46.70;;;;;;5033847;28;20472;-43
2022/03/02 10:12:37;;;;;;;33.23;31.73;;;19.10;46.60;;;;;;5033743;28;20496;-43
2022/03/02 10:15:08;;;;;;;28.77;27.47;;;19.10;46.60;;;;;;5033807;28;20950;-44
2022/03/02 10:17:37;;;;;;;31.00;29.63;;;19.20;46.60;;;;;;5033771;28;20865;-43
2022/03/02 10:20:07;;;;;;;34.50;32.80;;;19.10;46.40;;;;;;5033539;28;20441;-42
2022/03/02 10:22:52;;;;;;;34.40;32.90;;;19.10;46.50;;;;;;5033651;28;20466;-45
2022/03/02 10:25:19;;;;;;;31.70;30.30;;;19.20;46.60;;;;;;5033555;28;20445;-42
2022/03/02 10:28:00;;;;;;;29.20;27.90;;;19.20;46.60;;;;;;5033363;28;20441;-41
2022/03/02 10:30:32;;;;;;;32.47;31.07;;;19.30;46.70;;;;;;5033441;28;20456;-42
2022/03/02 10:33:12;;;;;;;31.93;30.63;;;19.30;46.50;;;;;;5033253;28;20998;-42
2022/03/02 10:35:43;;;;;;;33.37;31.80;;;19.50;46.40;;;;;;5033451;28;20445;-42
2022/03/02 10:38:16;;;;;;;32.37;30.93;;;19.60;46.80;;;;;;5033278;28;20477;-43
2022/03/02 10:40:44;;;;;;;29.87;28.47;;;19.70;46.10;;;;;;5033081;28;20452;-45
2022/03/02 10:43:16;;;;;;;27.80;26.60;;;19.70;45.90;;;;;;5033191;28;20923;-42
2022/03/02 10:45:49;;;;;;;30.23;28.93;;;19.80;45.70;;;;;;5041507;28;20514;-43
2022/03/02 10:48:23;;;;;;;27.40;26.20;;;19.90;45.60;;;;;;5043498;28;20547;-44
2022/03/02 10:50:52;;;;;;;29.27;27.97;;;19.90;45.00;;;;;;5040125;28;20803;-41
2022/03/02 10:53:22;;;;;;;25.50;24.35;;;19.90;44.90;;;;;;5034712;28;20457;-41
2022/03/02 10:55:49;;;;;;;29.93;28.63;;;20.00;45.10;;;;;;5033034;28;20207;-44
2022/03/02 10:58:18;;;;;;;27.60;26.30;;;20.00;45.10;;;;;;5032961;28;20885;-42
2022/03/02 11:00:48;;;;;;;28.33;26.92;;;20.10;45.30;;;;;;5032220;28;20456;-42
2022/03/02 11:03:15;;;;;;;28.77;27.47;;;20.10;46.10;;;;;;5041561;28;20664;-43
2022/03/02 11:05:42;;;;;;;29.30;27.80;;;20.10;45.60;;;;;;5052400;28;20443;-42
2022/03/02 11:08:09;;;;;;;28.00;26.70;;;20.20;46.10;;;;;;5052468;28;20198;-42
2022/03/02 11:10:37;;;;;;;28.73;27.37;;;20.20;46.50;;;;;;5051971;28;20445;-41
2022/03/02 11:13:11;;;;;;;28.80;27.30;;;20.20;46.70;;;;;;5045091;28;20481;-42
2022/03/02 11:15:50;;;;;;;31.33;29.83;;;20.30;47.20;;;;;;5032579;28;20446;-42
2022/03/02 11:18:19;;;;;;;32.10;30.70;;;20.30;47.10;;;;;;5032499;28;20463;-42
2022/03/02 11:21:01;;;;;;;31.63;30.20;;;20.30;47.40;;;;;;5042403;28;20514;-42
2022/03/02 11:23:28;;;;;;;31.57;30.07;;;20.30;48.00;;;;;;5052264;28;20441;-43
2022/03/02 11:25:56;;;;;;;30.77;29.47;;;20.40;48.40;;;;;;5052238;28;20456;-45
2022/03/02 11:28:25;;;;;;;28.60;27.40;;;20.40;48.40;;;;;;5052154;28;20444;-43
2022/03/02 11:30:55;;;;;;;28.02;26.63;;;20.50;48.40;;;;;;5047507;28;20445;-44
2022/03/02 11:33:25;;;;;;;29.90;28.60;;;20.60;48.50;;;;;;5032381;28;20226;-43
2022/03/02 11:35:54;;;;;;;29.33;28.00;;;20.80;48.10;;;;;;5032303;28;20961;-41
2022/03/02 11:38:23;;;;;;;29.20;27.97;;;20.90;47.70;;;;;;5032224;28;20480;-42
2022/03/02 11:40:52;;;;;;;27.30;26.10;;;21.10;47.50;;;;;;5035603;28;20849;-41
2022/03/02 11:43:21;;;;;;;28.90;27.60;;;21.30;47.40;;;;;;5051827;28;20493;-42
2022/03/02 11:45:49;;;;;;;27.13;25.83;;;21.60;46.80;;;;;;5037548;28;20199;-44
2022/03/02 11:48:17;;;;;;;29.50;28.10;;;22.30;46.10;;;;;;5031914;28;20452;-41
2022/03/02 11:51:03;;;;;;;32.07;30.67;;;23.70;44.70;;;;;;5031925;28;20451;-41
2022/03/02 11:53:32;;;;;;;33.90;32.50;;;25.20;41.90;;;;;;5031970;28;20481;-42
2022/03/02 11:56:00;;;;;;;37.80;35.93;;;26.20;39.80;;;;;;5031895;28;20441;-41
2022/03/02 11:58:27;;;;;;;33.50;32.10;;;26.90;38.10;;;;;;5031722;28;20449;-41
2022/03/02 12:01:05;;;;;;;36.97;35.37;;;27.50;36.80;;;;;;5031563;28;20449;-43
2022/03/02 12:03:34;;;;;;;34.97;33.47;;;28.00;35.80;;;;;;5031956;28;20441;-42
2022/03/02 12:06:06;;;;;;;36.53;34.93;;;28.20;34.70;;;;;;5031705;28;20456;-42
2022/03/02 12:08:33;;;;;;;36.03;34.40;;;28.20;34.40;;;;;;5031543;28;20445;-44
2022/03/02 12:11:02;;;;;;;32.93;31.53;;;28.40;33.90;;;;;;5031465;28;20955;-44
2022/03/02 12:13:29;;;;;;;38.67;36.87;;;28.70;33.50;;;;;;5031670;28;20481;-45
2022/03/02 12:15:56;;;;;;;35.57;34.07;;;28.80;33.00;;;;;;5031758;28;20453;-44
2022/03/02 12:18:23;;;;;;;36.97;35.37;;;28.70;32.80;;;;;;5031365;28;20931;-44
2022/03/02 12:20:53;;;;;;;40.30;38.60;;;28.80;32.60;;;;;;5030777;28;20441;-45
2022/03/02 12:23:24;;;;;;;33.97;32.47;;;28.90;32.40;;;;;;5031628;28;20950;-42
2022/03/02 12:25:51;;;;;;;34.13;32.63;;;28.90;32.10;;;;;;5031504;28;20455;-42
2022/03/02 12:28:20;;;;;;;35.13;33.53;;;28.90;32.00;;;;;;5031273;28;20767;-42
2022/03/02 12:30:47;;;;;;;29.67;28.37;;;28.70;32.00;;;;;;5031386;28;20450;-42